createdAt,value
2022-10-16T00:01:00.263Z,99.90
2022-10-16T00:03:30.482Z,99.80
2022-10-16T00:06:01.945Z,99.90
2022-10-16T00:08:30.265Z,99.90
2022-10-16T00:11:02.832Z,99.40
2022-10-16T00:13:31.132Z,99.70
2022-10-16T00:16:00.379Z,99.90
2022-10-16T00:18:30.024Z,99.90
2022-10-16T00:21:03.109Z,99.90
2022-10-16T00:23:30.963Z,99.90
2022-10-16T00:26:00.375Z,99.90
2022-10-16T00:28:28.768Z,99.90
2022-10-16T00:30:57.320Z,99.90
2022-10-16T00:33:25.509Z,99.90
2022-10-16T00:35:54.707Z,99.90
2022-10-16T00:38:22.634Z,99.90
2022-10-16T00:40:50.486Z,99.90
2022-10-16T00:43:40.390Z,99.90
2022-10-16T00:46:17.026Z,99.90
2022-10-16T00:48:50.731Z,99.90
2022-10-16T00:51:23.495Z,99.90
2022-10-16T00:53:51.904Z,99.90
2022-10-16T00:56:20.375Z,99.90
2022-10-16T00:58:48.459Z,99.90
2022-10-16T01:01:16.435Z,99.90
2022-10-16T01:03:44.369Z,99.90
2022-10-16T01:06:26.157Z,99.90
2022-10-16T01:09:09.658Z,99.90
2022-10-16T01:11:46.016Z,99.90
2022-10-16T01:14:23.051Z,99.90
2022-10-16T01:16:55.747Z,99.90
2022-10-16T01:19:38.459Z,99.90
2022-10-16T01:22:10.663Z,99.90
2022-10-16T01:24:41.860Z,99.90
2022-10-16T01:27:14.184Z,99.90
2022-10-16T01:29:51.048Z,99.90
2022-10-16T01:32:25.101Z,99.90
2022-10-16T01:34:58.973Z,99.90
2022-10-16T01:37:35.173Z,99.90
2022-10-16T01:40:07.559Z,99.90
2022-10-16T01:42:41.400Z,99.90
2022-10-16T01:45:12.253Z,99.90
2022-10-16T01:47:41.119Z,99.90
2022-10-16T01:50:10.719Z,99.90
2022-10-16T01:52:43.238Z,99.90
2022-10-16T01:55:14.429Z,99.90
2022-10-16T01:57:46.871Z,99.90
2022-10-16T02:00:18.374Z,99.90
2022-10-16T02:02:51.021Z,99.90
2022-10-16T02:05:23.063Z,99.90
2022-10-16T02:07:51.416Z,99.90
2022-10-16T02:10:20.027Z,99.90
2022-10-16T02:12:55.711Z,99.90
2022-10-16T02:15:23.591Z,99.90
2022-10-16T02:17:51.469Z,99.90
2022-10-16T02:20:23.141Z,99.90
2022-10-16T02:22:53.966Z,99.90
2022-10-16T02:25:26.998Z,99.90
2022-10-16T02:28:01.354Z,99.90
2022-10-16T02:30:34.372Z,99.90
2022-10-16T02:33:04.639Z,99.90
2022-10-16T02:35:33.559Z,99.90
2022-10-16T02:38:01.684Z,99.90
2022-10-16T02:40:30.248Z,99.90
2022-10-16T02:42:59.549Z,99.90
2022-10-16T02:45:27.787Z,99.90
2022-10-16T02:47:55.638Z,99.90
2022-10-16T02:50:23.598Z,99.90
2022-10-16T02:52:51.450Z,99.90
2022-10-16T02:55:19.475Z,99.90
2022-10-16T02:57:47.346Z,99.90
2022-10-16T03:00:19.309Z,99.90
2022-10-16T03:02:47.578Z,99.90
2022-10-16T03:05:16.276Z,99.90
2022-10-16T03:07:44.426Z,99.90
2022-10-16T03:10:12.259Z,99.90
2022-10-16T03:12:40.155Z,99.90
2022-10-16T03:15:09.179Z,99.90
2022-10-16T03:17:38.686Z,99.90
2022-10-16T03:20:07.379Z,99.90
2022-10-16T03:22:35.232Z,99.90
2022-10-16T03:25:03.113Z,99.90
2022-10-16T03:27:30.977Z,99.90
2022-10-16T03:29:58.830Z,99.90
2022-10-16T03:32:26.956Z,99.90
2022-10-16T03:34:57.372Z,99.90
2022-10-16T03:37:25.848Z,99.90
2022-10-16T03:39:54.206Z,99.90
2022-10-16T03:42:22.081Z,99.90
2022-10-16T03:44:49.939Z,99.90
2022-10-16T03:47:21.644Z,99.90
2022-10-16T03:49:49.711Z,99.90
2022-10-16T03:54:52.141Z,99.90
2022-10-16T03:57:21.523Z,99.90
2022-10-16T03:59:49.387Z,99.90
2022-10-16T04:02:17.312Z,99.90
2022-10-16T04:04:45.157Z,99.90
2022-10-16T04:07:13.031Z,99.90
2022-10-16T04:09:42.895Z,99.90
2022-10-16T04:12:10.761Z,99.90
2022-10-16T04:14:38.608Z,99.90
2022-10-16T04:17:06.467Z,99.90
2022-10-16T04:19:34.338Z,99.90
2022-10-16T04:22:02.211Z,99.90
2022-10-16T04:24:30.122Z,99.90
2022-10-16T04:26:59.394Z,99.90
2022-10-16T04:29:27.271Z,99.90
2022-10-16T04:31:55.137Z,99.90
2022-10-16T04:34:23.128Z,99.90
2022-10-16T04:36:51.069Z,99.90
2022-10-16T04:39:18.914Z,99.90
2022-10-16T04:41:46.874Z,99.90
2022-10-16T04:44:16.216Z,99.90
2022-10-16T04:46:45.297Z,99.90
2022-10-16T04:49:13.204Z,99.90
2022-10-16T04:51:41.079Z,99.90
2022-10-16T04:54:08.971Z,99.90
2022-10-16T04:56:43.885Z,99.90
2022-10-16T04:59:11.950Z,99.90
2022-10-16T05:01:41.196Z,99.90
2022-10-16T05:04:09.095Z,99.90
2022-10-16T05:06:37.054Z,99.90
2022-10-16T05:09:05.267Z,99.90
2022-10-16T05:11:33.301Z,99.90
2022-10-16T05:14:01.646Z,99.90
2022-10-16T05:16:29.561Z,99.90
2022-10-16T05:19:22.351Z,99.90
2022-10-16T05:21:46.986Z,99.90
2022-10-16T05:24:15.081Z,99.90
2022-10-16T05:26:42.932Z,99.90
2022-10-16T05:29:11.574Z,99.90
2022-10-16T05:31:39.507Z,99.90
2022-10-16T05:34:08.723Z,99.90
2022-10-16T05:36:36.637Z,99.90
2022-10-16T05:39:05.322Z,99.90
2022-10-16T05:41:33.189Z,99.90
2022-10-16T05:44:01.065Z,99.90
2022-10-16T05:46:28.975Z,99.90
2022-10-16T05:48:56.848Z,99.90
2022-10-16T05:51:26.166Z,99.90
2022-10-16T05:53:54.450Z,99.90
2022-10-16T05:56:22.329Z,99.90
2022-10-16T05:58:50.224Z,99.90
2022-10-16T06:01:19.589Z,99.90
2022-10-16T06:03:47.477Z,99.90
2022-10-16T06:06:17.302Z,99.90
2022-10-16T06:08:47.561Z,99.90
2022-10-16T06:11:18.159Z,99.30
2022-10-16T06:13:46.897Z,99.00
2022-10-16T06:16:15.479Z,99.40
2022-10-16T06:18:43.316Z,99.50
2022-10-16T06:21:12.864Z,99.50
2022-10-16T06:23:40.824Z,99.30
2022-10-16T06:26:11.111Z,99.10
2022-10-16T06:28:39.903Z,99.20
2022-10-16T06:31:10.259Z,99.20
2022-10-16T06:33:39.039Z,99.00
2022-10-16T06:36:09.711Z,99.20
2022-10-16T06:38:37.989Z,99.10
2022-10-16T06:41:06.910Z,99.10
2022-10-16T06:43:36.646Z,99.20
2022-10-16T06:46:06.359Z,99.70
2022-10-16T06:48:34.225Z,99.90
2022-10-16T06:53:39.782Z,99.90
2022-10-16T06:56:13.665Z,99.90
2022-10-16T06:58:44.055Z,99.90
2022-10-16T07:01:13.142Z,99.90
2022-10-16T07:03:42.793Z,99.90
2022-10-16T07:06:12.203Z,99.80
2022-10-16T07:08:41.439Z,99.90
2022-10-16T07:11:11.831Z,99.90
2022-10-16T07:13:42.371Z,99.90
2022-10-16T07:16:12.667Z,99.80
2022-10-16T07:18:41.269Z,99.30
2022-10-16T07:21:10.730Z,98.70
2022-10-16T07:23:38.818Z,98.60
2022-10-16T07:26:07.624Z,98.10
2022-10-16T07:28:36.049Z,98.10
2022-10-16T07:31:06.114Z,97.80
2022-10-16T07:33:34.247Z,98.20
2022-10-16T07:36:02.551Z,98.10
2022-10-16T07:38:30.418Z,98.10
2022-10-16T07:40:59.807Z,98.10
2022-10-16T07:43:27.992Z,98.20
2022-10-16T07:45:57.584Z,98.30
2022-10-16T07:48:30.352Z,98.50
2022-10-16T07:51:00.572Z,99.20
2022-10-16T07:53:28.491Z,99.20
2022-10-16T07:56:00.482Z,99.10
2022-10-16T07:58:28.759Z,98.90
2022-10-16T08:00:56.713Z,99.30
2022-10-16T08:03:25.108Z,99.60
2022-10-16T08:05:54.470Z,99.40
2022-10-16T08:08:22.364Z,99.40
2022-10-16T08:10:50.589Z,99.40
2022-10-16T08:13:19.159Z,99.50
2022-10-16T08:15:47.851Z,99.50
2022-10-16T08:18:16.921Z,99.50
2022-10-16T08:20:45.314Z,99.60
2022-10-16T08:23:15.005Z,99.90
2022-10-16T08:25:44.082Z,99.90
2022-10-16T08:28:13.082Z,99.70
2022-10-16T08:30:41.046Z,99.70
2022-10-16T08:33:09.040Z,99.70
2022-10-16T08:35:36.924Z,99.70
2022-10-16T08:38:05.553Z,99.60
2022-10-16T08:40:37.739Z,99.90
2022-10-16T08:43:23.908Z,99.60
2022-10-16T08:46:11.260Z,99.40
2022-10-16T08:48:45.529Z,99.00
2022-10-16T08:51:17.601Z,99.00
2022-10-16T08:53:50.917Z,99.00
2022-10-16T08:56:21.418Z,98.70
2022-10-16T08:58:50.193Z,98.60
2022-10-16T09:01:21.443Z,98.40
2022-10-16T09:04:09.499Z,98.20
2022-10-16T09:06:46.201Z,98.20
2022-10-16T09:09:29.806Z,97.70
2022-10-16T09:12:06.038Z,97.60
2022-10-16T09:15:08.566Z,97.50
2022-10-16T09:17:45.296Z,97.60
2022-10-16T09:20:33.301Z,97.40
2022-10-16T09:23:17.538Z,97.30
2022-10-16T09:25:49.659Z,97.10
2022-10-16T09:28:20.114Z,96.80
2022-10-16T09:30:50.700Z,96.70
2022-10-16T09:33:21.031Z,96.70
2022-10-16T09:35:52.100Z,96.80
2022-10-16T09:38:26.803Z,96.90
2022-10-16T09:40:59.283Z,97.00
2022-10-16T09:43:38.040Z,96.90
2022-10-16T09:46:07.912Z,96.80
2022-10-16T09:48:39.746Z,96.90
2022-10-16T09:51:18.069Z,96.80
2022-10-16T09:53:47.742Z,96.60
2022-10-16T09:56:25.127Z,96.70
2022-10-16T09:58:55.900Z,97.20
2022-10-16T10:01:28.269Z,97.40
2022-10-16T10:04:02.011Z,97.60
2022-10-16T10:06:32.838Z,97.90
2022-10-16T10:09:05.431Z,96.90
2022-10-16T10:11:48.699Z,96.20
2022-10-16T10:14:37.028Z,95.90
2022-10-16T10:17:17.621Z,95.50
2022-10-16T10:19:49.643Z,95.00
2022-10-16T10:22:42.070Z,95.10
2022-10-16T10:25:50.616Z,95.20
2022-10-16T10:28:42.735Z,95.00
2022-10-16T10:31:19.968Z,94.80
2022-10-16T10:33:54.930Z,94.50
2022-10-16T10:36:31.031Z,94.50
2022-10-16T10:39:01.715Z,94.20
2022-10-16T10:41:56.463Z,94.80
2022-10-16T10:44:36.923Z,94.70
2022-10-16T10:47:13.545Z,94.50
2022-10-16T10:49:52.261Z,94.30
2022-10-16T10:52:38.762Z,94.50
2022-10-16T10:55:17.936Z,94.40
2022-10-16T10:57:58.428Z,94.30
2022-10-16T11:00:44.154Z,94.00
2022-10-16T11:03:29.563Z,94.20
2022-10-16T11:06:00.536Z,94.10
2022-10-16T11:08:35.686Z,94.40
2022-10-16T11:11:06.566Z,94.00
2022-10-16T11:13:39.889Z,93.90
2022-10-16T11:16:20.502Z,93.80
2022-10-16T11:18:57.546Z,93.80
2022-10-16T11:21:30.304Z,93.60
2022-10-16T11:24:04.307Z,93.50
2022-10-16T11:26:37.634Z,93.20
2022-10-16T11:29:13.257Z,93.30
2022-10-16T11:31:43.596Z,93.10
2022-10-16T11:34:19.589Z,93.20
2022-10-16T11:36:52.339Z,93.20
2022-10-16T11:39:24.649Z,93.30
2022-10-16T11:41:56.629Z,93.50
2022-10-16T11:44:45.011Z,93.50
2022-10-16T11:47:46.439Z,93.40
2022-10-16T11:50:21.042Z,93.00
2022-10-16T11:52:57.563Z,92.90
2022-10-16T11:55:32.327Z,92.50
2022-10-16T11:58:03.954Z,92.80
2022-10-16T12:00:37.913Z,92.80
2022-10-16T12:03:13.576Z,93.00
2022-10-16T12:05:57.603Z,92.80
2022-10-16T12:08:26.038Z,92.40
2022-10-16T12:10:56.135Z,92.20
2022-10-16T12:13:33.055Z,92.10
2022-10-16T12:16:24.773Z,92.10
2022-10-16T12:19:11.782Z,91.90
2022-10-16T12:21:41.512Z,91.70
2022-10-16T12:24:23.928Z,91.60
2022-10-16T12:26:54.191Z,91.80
2022-10-16T12:29:32.146Z,91.80
2022-10-16T12:32:00.339Z,91.40
2022-10-16T12:34:31.661Z,91.30
2022-10-16T12:37:13.541Z,91.30
2022-10-16T12:39:41.961Z,91.20
2022-10-16T12:42:24.894Z,90.80
2022-10-16T12:44:53.641Z,90.80
2022-10-16T12:47:26.112Z,90.50
2022-10-16T12:49:56.107Z,90.60
2022-10-16T12:52:38.384Z,90.20
2022-10-16T12:55:14.499Z,90.20
2022-10-16T12:57:56.756Z,90.40
2022-10-16T13:00:28.930Z,90.30
2022-10-16T13:03:25.592Z,90.10
2022-10-16T13:06:04.437Z,90.10
2022-10-16T13:08:53.045Z,90.50
2022-10-16T13:11:28.000Z,90.50
2022-10-16T13:14:09.475Z,90.50
2022-10-16T13:16:50.271Z,90.50
2022-10-16T13:19:27.756Z,90.70
2022-10-16T13:22:03.322Z,90.70
2022-10-16T13:24:48.464Z,90.60
2022-10-16T13:27:28.569Z,90.60
2022-10-16T13:30:04.226Z,90.40
2022-10-16T13:32:33.178Z,90.30
2022-10-16T13:35:02.021Z,89.70
2022-10-16T13:37:30.120Z,89.70
2022-10-16T13:40:19.844Z,89.80
2022-10-16T13:42:47.776Z,89.70
2022-10-16T13:45:22.536Z,89.60
2022-10-16T13:47:50.495Z,89.00
2022-10-16T13:50:20.270Z,88.90
2022-10-16T13:52:48.250Z,88.30
2022-10-16T13:55:19.907Z,88.90
2022-10-16T13:57:47.947Z,88.80
2022-10-16T14:00:24.960Z,88.40
2022-10-16T14:02:58.419Z,88.40
2022-10-16T14:05:26.527Z,87.90
2022-10-16T14:07:56.557Z,88.10
2022-10-16T14:10:28.800Z,88.20
2022-10-16T14:12:58.872Z,88.30
2022-10-16T14:15:27.200Z,88.30
2022-10-16T14:17:55.655Z,88.60
2022-10-16T14:20:28.187Z,88.90
2022-10-16T14:23:04.399Z,89.30
2022-10-16T14:25:34.811Z,89.40
2022-10-16T14:28:05.222Z,89.70
2022-10-16T14:30:35.069Z,89.30
2022-10-16T14:33:05.317Z,89.00
2022-10-16T14:35:35.389Z,88.70
2022-10-16T14:38:05.219Z,88.70
2022-10-16T14:40:36.178Z,89.00
2022-10-16T14:43:05.389Z,89.70
2022-10-16T14:45:35.684Z,90.00
2022-10-16T14:48:07.441Z,90.00
2022-10-16T14:50:35.276Z,91.00
2022-10-16T14:53:03.115Z,91.30
2022-10-16T14:55:31.490Z,91.40
2022-10-16T14:58:00.984Z,91.40
2022-10-16T15:00:29.394Z,91.80
2022-10-16T15:02:57.276Z,92.10
2022-10-16T15:05:27.828Z,92.40
2022-10-16T15:07:56.764Z,92.50
2022-10-16T15:10:26.104Z,92.60
2022-10-16T15:12:54.570Z,92.60
2022-10-16T15:15:38.793Z,92.70
2022-10-16T15:18:07.217Z,92.50
2022-10-16T15:20:37.433Z,92.90
2022-10-16T15:23:08.012Z,92.30
2022-10-16T15:25:41.588Z,93.00
2022-10-16T15:28:10.092Z,93.30
2022-10-16T15:30:40.107Z,93.20
2022-10-16T15:33:14.347Z,93.30
2022-10-16T15:35:42.313Z,93.40
2022-10-16T15:38:13.023Z,93.20
2022-10-16T15:40:41.241Z,93.40
2022-10-16T15:43:09.679Z,93.60
2022-10-16T15:45:39.045Z,93.70
2022-10-16T15:48:07.311Z,93.70
2022-10-16T15:50:35.807Z,93.90
2022-10-16T15:53:03.662Z,93.90
2022-10-16T15:55:31.659Z,93.60
2022-10-16T15:57:59.515Z,93.80
2022-10-16T16:00:27.417Z,93.70
2022-10-16T16:02:56.633Z,93.80
2022-10-16T16:05:25.166Z,94.10
2022-10-16T16:07:53.122Z,94.00
2022-10-16T16:10:22.554Z,94.10
2022-10-16T16:12:52.903Z,94.20
2022-10-16T16:15:21.881Z,94.20
2022-10-16T16:17:50.340Z,94.20
2022-10-16T16:20:19.579Z,94.20
2022-10-16T16:22:47.442Z,94.20
2022-10-16T16:25:15.323Z,94.30
2022-10-16T16:27:43.157Z,94.30
2022-10-16T16:30:18.211Z,94.30
2022-10-16T16:32:47.854Z,94.40
2022-10-16T16:35:15.879Z,94.30
2022-10-16T16:37:45.081Z,94.30
2022-10-16T16:40:13.248Z,94.40
2022-10-16T16:42:41.240Z,94.60
2022-10-16T16:45:10.361Z,94.60
2022-10-16T16:47:39.370Z,94.50
2022-10-16T16:50:07.973Z,94.60
2022-10-16T16:52:36.101Z,94.60
2022-10-16T16:55:05.804Z,94.70
2022-10-16T16:57:33.642Z,94.60
2022-10-16T17:00:01.506Z,94.80
2022-10-16T17:02:29.383Z,94.70
2022-10-16T17:04:58.456Z,94.30
2022-10-16T17:07:28.540Z,94.50
2022-10-16T17:09:56.746Z,94.90
2022-10-16T17:12:26.083Z,95.20
2022-10-16T17:14:53.981Z,95.10
2022-10-16T17:17:21.855Z,95.20
2022-10-16T17:19:51.532Z,95.30
2022-10-16T17:22:20.189Z,95.10
2022-10-16T17:24:52.149Z,95.00
2022-10-16T17:27:20.435Z,95.50
2022-10-16T17:29:53.337Z,95.10
2022-10-16T17:32:21.874Z,94.70
2022-10-16T17:34:49.706Z,94.50
2022-10-16T17:37:18.306Z,94.60
2022-10-16T17:39:46.687Z,94.20
2022-10-16T17:42:14.571Z,94.30
2022-10-16T17:44:42.407Z,94.80
2022-10-16T17:47:11.979Z,95.00
2022-10-16T17:49:39.866Z,95.10
2022-10-16T17:52:07.715Z,95.10
2022-10-16T17:54:35.634Z,95.00
2022-10-16T17:57:03.504Z,95.20
2022-10-16T17:59:31.374Z,95.20
2022-10-16T18:01:59.543Z,95.30
2022-10-16T18:04:28.867Z,95.60
2022-10-16T18:06:57.040Z,95.70
2022-10-16T18:09:24.959Z,95.70
2022-10-16T18:11:59.661Z,95.60
2022-10-16T18:14:28.451Z,95.40
2022-10-16T18:16:56.519Z,95.20
2022-10-16T18:19:24.640Z,95.50
2022-10-16T18:21:55.547Z,95.40
2022-10-16T18:24:24.993Z,95.50
2022-10-16T18:26:56.480Z,95.70
2022-10-16T18:29:25.779Z,95.60
2022-10-16T18:31:53.732Z,95.90
2022-10-16T18:34:22.059Z,96.10
2022-10-16T18:36:52.717Z,95.90
2022-10-16T18:39:24.827Z,96.00
2022-10-16T18:41:59.366Z,95.90
2022-10-16T18:44:27.675Z,95.70
2022-10-16T18:46:56.996Z,95.80
2022-10-16T18:49:26.328Z,96.00
2022-10-16T18:51:56.658Z,95.90
2022-10-16T18:54:26.167Z,96.00
2022-10-16T18:56:54.395Z,96.00
2022-10-16T18:59:22.434Z,96.10
2022-10-16T19:01:50.694Z,96.00
2022-10-16T19:04:19.282Z,96.00
2022-10-16T19:06:49.321Z,96.00
2022-10-16T19:09:19.154Z,96.10
2022-10-16T19:11:48.823Z,95.90
2022-10-16T19:14:18.323Z,96.00
2022-10-16T19:16:46.206Z,96.40
2022-10-16T19:19:18.171Z,96.20
2022-10-16T19:21:47.829Z,96.20
2022-10-16T19:24:16.726Z,96.10
2022-10-16T19:26:44.659Z,96.10
2022-10-16T19:29:14.120Z,96.20
2022-10-16T19:31:42.341Z,96.00
2022-10-16T19:34:12.552Z,96.00
2022-10-16T19:36:41.901Z,96.30
2022-10-16T19:39:13.910Z,96.20
2022-10-16T19:41:42.279Z,96.50
2022-10-16T19:44:12.932Z,96.60
2022-10-16T19:46:42.736Z,96.50
2022-10-16T19:49:12.512Z,96.80
2022-10-16T19:51:41.047Z,97.70
2022-10-16T19:54:12.535Z,98.00
2022-10-16T19:56:40.890Z,97.80
2022-10-16T19:59:11.578Z,97.50
2022-10-16T20:01:40.137Z,97.70
2022-10-16T20:04:09.429Z,97.60
2022-10-16T20:06:37.355Z,97.40
2022-10-16T20:09:05.437Z,97.20
2022-10-16T20:11:35.540Z,97.10
2022-10-16T20:14:03.872Z,97.10
2022-10-16T20:16:32.256Z,97.10
2022-10-16T20:19:01.053Z,97.10
2022-10-16T20:21:31.691Z,97.00
2022-10-16T20:24:02.068Z,97.20
2022-10-16T20:26:29.943Z,97.20
2022-10-16T20:28:57.909Z,97.30
2022-10-16T20:31:28.605Z,97.20
2022-10-16T20:33:58.052Z,97.20
2022-10-16T20:36:27.111Z,97.10
2022-10-16T20:38:56.309Z,97.10
2022-10-16T20:41:24.539Z,96.90
2022-10-16T20:43:53.220Z,97.00
2022-10-16T20:46:23.495Z,97.10
2022-10-16T20:48:52.324Z,97.30
2022-10-16T20:51:22.610Z,97.40
2022-10-16T20:54:00.531Z,97.50
2022-10-16T20:56:30.361Z,97.50
2022-10-16T20:58:58.680Z,97.30
2022-10-16T21:01:28.390Z,97.40
2022-10-16T21:03:57.950Z,97.50
2022-10-16T21:06:26.370Z,97.50
2022-10-16T21:08:54.308Z,97.50
2022-10-16T21:11:25.811Z,97.60
2022-10-16T21:13:54.960Z,97.50
2022-10-16T21:16:23.395Z,97.50
2022-10-16T21:18:52.967Z,97.50
2022-10-16T21:21:22.508Z,97.70
2022-10-16T21:23:51.160Z,97.50
2022-10-16T21:26:23.201Z,97.40
2022-10-16T21:28:52.638Z,97.40
2022-10-16T21:31:22.259Z,97.20
2022-10-16T21:33:51.552Z,97.30
2022-10-16T21:36:21.267Z,97.20
2022-10-16T21:38:49.835Z,97.50
2022-10-16T21:41:20.485Z,97.50
2022-10-16T21:43:48.850Z,97.40
2022-10-16T21:46:19.520Z,97.20
2022-10-16T21:48:47.992Z,97.20
2022-10-16T21:51:16.582Z,97.20
2022-10-16T21:53:44.486Z,97.30
2022-10-16T21:56:16.569Z,97.10
2022-10-16T21:58:45.537Z,96.80
2022-10-16T22:01:17.843Z,97.30
2022-10-16T22:03:46.224Z,97.40
2022-10-16T22:06:15.684Z,96.90
2022-10-16T22:08:43.923Z,97.40
2022-10-16T22:11:14.450Z,97.50
2022-10-16T22:13:42.676Z,97.50
2022-10-16T22:16:11.396Z,97.10
2022-10-16T22:18:41.143Z,97.20
2022-10-16T22:21:10.796Z,97.40
2022-10-16T22:23:38.659Z,97.50
2022-10-16T22:26:08.770Z,97.60
2022-10-16T22:28:37.248Z,97.50
2022-10-16T22:31:07.654Z,97.40
2022-10-16T22:33:35.946Z,97.30
2022-10-16T22:36:07.174Z,96.90
2022-10-16T22:38:36.918Z,96.80
2022-10-16T22:41:05.572Z,97.20
2022-10-16T22:43:37.278Z,97.10
2022-10-16T22:46:05.835Z,96.60
2022-10-16T22:48:33.680Z,96.60
2022-10-16T22:51:02.110Z,97.20
2022-10-16T22:53:31.791Z,97.40
2022-10-16T22:55:59.672Z,97.70
2022-10-16T22:58:27.584Z,97.80
2022-10-16T23:00:55.510Z,97.70
2022-10-16T23:03:23.477Z,97.70
2022-10-16T23:05:51.454Z,97.70
2022-10-16T23:08:19.710Z,97.60
2022-10-16T23:10:49.571Z,97.70
2022-10-16T23:13:17.452Z,97.70
2022-10-16T23:15:46.146Z,97.80
2022-10-16T23:18:14.056Z,97.70
2022-10-16T23:20:42.364Z,97.70
2022-10-16T23:23:10.852Z,97.80
2022-10-16T23:25:45.731Z,97.70
2022-10-16T23:30:48.221Z,97.50
2022-10-16T23:33:16.098Z,97.60
2022-10-16T23:35:43.984Z,97.60
2022-10-16T23:38:11.827Z,97.50
2022-10-16T23:40:39.671Z,97.30
2022-10-16T23:43:07.554Z,97.70
2022-10-16T23:45:36.759Z,97.80
2022-10-16T23:48:04.772Z,97.90
2022-10-16T23:50:32.607Z,97.90
2022-10-16T23:53:00.475Z,97.80
2022-10-16T23:55:28.393Z,97.80
2022-10-16T23:57:56.272Z,97.50
